sensor_id;sensor_type;location;lat;lon;timestamp;pressure;altitude;pressure_sealevel;temperature
13304;BMP280;6720;51.958;4.540;2022-09-09T00:02:27;100511.81;;;15.66
13304;BMP280;6720;51.958;4.540;2022-09-09T00:05:04;100522.00;;;15.75
13304;BMP280;6720;51.958;4.540;2022-09-09T00:07:43;100523.16;;;15.68
13304;BMP280;6720;51.958;4.540;2022-09-09T00:10:37;100517.88;;;15.68
13304;BMP280;6720;51.958;4.540;2022-09-09T00:13:26;100511.97;;;15.63
13304;BMP280;6720;51.958;4.540;2022-09-09T00:18:54;100507.47;;;15.65
13304;BMP280;6720;51.958;4.540;2022-09-09T00:21:26;100504.16;;;15.60
13304;BMP280;6720;51.958;4.540;2022-09-09T00:23:54;100504.28;;;15.57
13304;BMP280;6720;51.958;4.540;2022-09-09T00:26:40;100508.31;;;15.65
13304;BMP280;6720;51.958;4.540;2022-09-09T00:31:37;100503.41;;;15.56
13304;BMP280;6720;51.958;4.540;2022-09-09T00:34:15;100495.97;;;15.46
13304;BMP280;6720;51.958;4.540;2022-09-09T00:36:42;100499.13;;;15.54
13304;BMP280;6720;51.958;4.540;2022-09-09T00:39:34;100501.13;;;15.49
13304;BMP280;6720;51.958;4.540;2022-09-09T00:47:45;100488.25;;;15.41
13304;BMP280;6720;51.958;4.540;2022-09-09T00:55:38;100491.69;;;15.43
13304;BMP280;6720;51.958;4.540;2022-09-09T00:58:08;100490.81;;;15.43
13304;BMP280;6720;51.958;4.540;2022-09-09T01:00:57;100487.41;;;15.41
13304;BMP280;6720;51.958;4.540;2022-09-09T01:03:35;100488.41;;;15.38
13304;BMP280;6720;51.958;4.540;2022-09-09T01:06:22;100469.13;;;15.36
13304;BMP280;6720;51.958;4.540;2022-09-09T01:11:36;100484.03;;;15.37
13304;BMP280;6720;51.958;4.540;2022-09-09T01:16:59;100474.34;;;15.58
13304;BMP280;6720;51.958;4.540;2022-09-09T01:25:18;100465.78;;;15.53
13304;BMP280;6720;51.958;4.540;2022-09-09T01:28:11;100466.16;;;15.64
13304;BMP280;6720;51.958;4.540;2022-09-09T01:31:11;100439.78;;;15.44
13304;BMP280;6720;51.958;4.540;2022-09-09T01:34:04;100462.59;;;15.45
13304;BMP280;6720;51.958;4.540;2022-09-09T01:37:13;100467.59;;;15.51
13304;BMP280;6720;51.958;4.540;2022-09-09T01:40:15;100453.94;;;15.41
13304;BMP280;6720;51.958;4.540;2022-09-09T02:33:33;100415.97;;;15.45
13304;BMP280;6720;51.958;4.540;2022-09-09T02:36:01;100414.25;;;15.44
13304;BMP280;6720;51.958;4.540;2022-09-09T02:38:55;100402.72;;;15.47
13304;BMP280;6720;51.958;4.540;2022-09-09T02:41:30;100407.47;;;15.39
13304;BMP280;6720;51.958;4.540;2022-09-09T02:43:56;100405.84;;;15.35
13304;BMP280;6720;51.958;4.540;2022-09-09T02:46:39;100402.19;;;15.39
13304;BMP280;6720;51.958;4.540;2022-09-09T02:49:13;100408.28;;;15.41
13304;BMP280;6720;51.958;4.540;2022-09-09T02:52:06;100416.25;;;15.39
13304;BMP280;6720;51.958;4.540;2022-09-09T02:54:34;100410.84;;;15.42
13304;BMP280;6720;51.958;4.540;2022-09-09T02:57:13;100409.97;;;15.42
13304;BMP280;6720;51.958;4.540;2022-09-09T02:59:43;100404.06;;;15.37
13304;BMP280;6720;51.958;4.540;2022-09-09T03:02:09;100408.13;;;15.44
13304;BMP280;6720;51.958;4.540;2022-09-09T03:04:37;100396.66;;;15.45
13304;BMP280;6720;51.958;4.540;2022-09-09T03:07:02;100396.59;;;15.46
13304;BMP280;6720;51.958;4.540;2022-09-09T03:09:29;100395.59;;;15.49
13304;BMP280;6720;51.958;4.540;2022-09-09T03:11:54;100390.59;;;15.43
13304;BMP280;6720;51.958;4.540;2022-09-09T03:14:20;100395.72;;;15.46
13304;BMP280;6720;51.958;4.540;2022-09-09T03:16:50;100391.44;;;15.43
13304;BMP280;6720;51.958;4.540;2022-09-09T03:19:15;100386.94;;;15.45
13304;BMP280;6720;51.958;4.540;2022-09-09T03:21:41;100390.44;;;15.46
13304;BMP280;6720;51.958;4.540;2022-09-09T03:24:06;100390.19;;;15.52
13304;BMP280;6720;51.958;4.540;2022-09-09T03:26:32;100397.31;;;15.50
13304;BMP280;6720;51.958;4.540;2022-09-09T03:28:57;100398.44;;;15.44
13304;BMP280;6720;51.958;4.540;2022-09-09T03:31:25;100385.81;;;15.51
13304;BMP280;6720;51.958;4.540;2022-09-09T03:33:51;100386.75;;;15.50
13304;BMP280;6720;51.958;4.540;2022-09-09T03:36:16;100382.47;;;15.47
13304;BMP280;6720;51.958;4.540;2022-09-09T03:38:41;100390.44;;;15.46
13304;BMP280;6720;51.958;4.540;2022-09-09T03:41:07;100376.63;;;15.41
13304;BMP280;6720;51.958;4.540;2022-09-09T03:43:33;100395.72;;;15.46
13304;BMP280;6720;51.958;4.540;2022-09-09T03:45:58;100393.22;;;15.43
13304;BMP280;6720;51.958;4.540;2022-09-09T03:48:24;100386.19;;;15.43
13304;BMP280;6720;51.958;4.540;2022-09-09T03:50:52;100391.69;;;15.37
13304;BMP280;6720;51.958;4.540;2022-09-09T03:53:19;100392.56;;;15.38
13304;BMP280;6720;51.958;4.540;2022-09-09T03:55:48;100382.25;;;15.32
13304;BMP280;6720;51.958;4.540;2022-09-09T03:58:15;100393.44;;;15.38
13304;BMP280;6720;51.958;4.540;2022-09-09T04:00:41;100362.56;;;15.20
13304;BMP280;6720;51.958;4.540;2022-09-09T04:03:10;100380.31;;;15.37
13304;BMP280;6720;51.958;4.540;2022-09-09T04:05:36;100368.16;;;15.33
13304;BMP280;6720;51.958;4.540;2022-09-09T04:08:08;100374.75;;;15.43
13304;BMP280;6720;51.958;4.540;2022-09-09T04:10:34;100368.03;;;15.36
13304;BMP280;6720;51.958;4.540;2022-09-09T04:13:01;100380.16;;;15.40
13304;BMP280;6720;51.958;4.540;2022-09-09T04:15:27;100375.25;;;15.31
13304;BMP280;6720;51.958;4.540;2022-09-09T04:17:53;100372.34;;;15.38
13304;BMP280;6720;51.958;4.540;2022-09-09T04:20:18;100374.19;;;15.36
13304;BMP280;6720;51.958;4.540;2022-09-09T04:22:44;100361.44;;;15.26
13304;BMP280;6720;51.958;4.540;2022-09-09T04:25:09;100360.56;;;15.25
13304;BMP280;6720;51.958;4.540;2022-09-09T04:27:35;100357.81;;;15.28
13304;BMP280;6720;51.958;4.540;2022-09-09T04:30:00;100355.94;;;15.30
13304;BMP280;6720;51.958;4.540;2022-09-09T04:32:26;100363.13;;;15.27
13304;BMP280;6720;51.958;4.540;2022-09-09T04:34:53;100358.28;;;15.18
13304;BMP280;6720;51.958;4.540;2022-09-09T04:37:19;100345.00;;;15.19
13304;BMP280;6720;51.958;4.540;2022-09-09T04:39:44;100357.81;;;15.28
13304;BMP280;6720;51.958;4.540;2022-09-09T04:42:10;100347.44;;;15.24
13304;BMP280;6720;51.958;4.540;2022-09-09T04:44:38;100347.72;;;15.18
13304;BMP280;6720;51.958;4.540;2022-09-09T04:47:05;100349.25;;;15.23
13304;BMP280;6720;51.958;4.540;2022-09-09T04:49:31;100354.69;;;15.19
13304;BMP280;6720;51.958;4.540;2022-09-09T04:51:56;100349.56;;;15.16
13304;BMP280;6720;51.958;4.540;2022-09-09T04:54:22;100347.16;;;15.10
13304;BMP280;6720;51.958;4.540;2022-09-09T04:56:47;100346.00;;;15.17
13304;BMP280;6720;51.958;4.540;2022-09-09T04:59:12;100347.84;;;15.15
13304;BMP280;6720;51.958;4.540;2022-09-09T05:01:38;100348.56;;;15.18
13304;BMP280;6720;51.958;4.540;2022-09-09T05:04:03;100338.88;;;15.19
13304;BMP280;6720;51.958;4.540;2022-09-09T05:06:28;100340.59;;;15.20
13304;BMP280;6720;51.958;4.540;2022-09-09T05:08:56;100341.53;;;15.19
13304;BMP280;6720;51.958;4.540;2022-09-09T05:11:25;100351.00;;;15.23
13304;BMP280;6720;51.958;4.540;2022-09-09T05:13:51;100343.22;;;15.20
13304;BMP280;6720;51.958;4.540;2022-09-09T05:16:17;100328.34;;;15.19
13304;BMP280;6720;51.958;4.540;2022-09-09T05:18:43;100346.31;;;15.29
13304;BMP280;6720;51.958;4.540;2022-09-09T05:21:13;100333.31;;;15.25
13304;BMP280;6720;51.958;4.540;2022-09-09T05:23:39;100334.00;;;15.30
13304;BMP280;6720;51.958;4.540;2022-09-09T05:26:05;100330.50;;;15.29
13304;BMP280;6720;51.958;4.540;2022-09-09T05:28:33;100334.78;;;15.32
13304;BMP280;6720;51.958;4.540;2022-09-09T05:31:00;100330.22;;;15.37
13304;BMP280;6720;51.958;4.540;2022-09-09T05:33:28;100327.56;;;15.37
13304;BMP280;6720;51.958;4.540;2022-09-09T05:35:58;100338.94;;;15.37
13304;BMP280;6720;51.958;4.540;2022-09-09T05:38:25;100340.53;;;15.41
13304;BMP280;6720;51.958;4.540;2022-09-09T05:40:51;100343.03;;;15.44
13304;BMP280;6720;51.958;4.540;2022-09-09T05:43:20;100342.53;;;15.55
13304;BMP280;6720;51.958;4.540;2022-09-09T05:45:47;100336.44;;;15.54
13304;BMP280;6720;51.958;4.540;2022-09-09T05:48:16;100347.44;;;15.64
13304;BMP280;6720;51.958;4.540;2022-09-09T05:50:42;100331.88;;;15.58
13304;BMP280;6720;51.958;4.540;2022-09-09T05:53:08;100353.34;;;15.69
13304;BMP280;6720;51.958;4.540;2022-09-09T05:55:34;100349.88;;;15.87
13304;BMP280;6720;51.958;4.540;2022-09-09T05:57:59;100346.03;;;15.94
13304;BMP280;6720;51.958;4.540;2022-09-09T06:00:25;100338.88;;;15.96
13304;BMP280;6720;51.958;4.540;2022-09-09T06:02:51;100343.44;;;15.92
13304;BMP280;6720;51.958;4.540;2022-09-09T06:05:18;100349.38;;;15.97
13304;BMP280;6720;51.958;4.540;2022-09-09T06:07:43;100350.53;;;16.10
13304;BMP280;6720;51.958;4.540;2022-09-09T06:10:10;100347.16;;;16.07
13304;BMP280;6720;51.958;4.540;2022-09-09T06:12:35;100353.84;;;16.14
13304;BMP280;6720;51.958;4.540;2022-09-09T06:15:01;100346.56;;;16.19
13304;BMP280;6720;51.958;4.540;2022-09-09T06:17:27;100349.50;;;16.13
13304;BMP280;6720;51.958;4.540;2022-09-09T06:19:52;100353.41;;;16.23
13304;BMP280;6720;51.958;4.540;2022-09-09T06:22:18;100351.28;;;16.31
13304;BMP280;6720;51.958;4.540;2022-09-09T06:24:43;100355.63;;;16.32
13304;BMP280;6720;51.958;4.540;2022-09-09T06:27:09;100357.13;;;16.37
13304;BMP280;6720;51.958;4.540;2022-09-09T06:29:35;100349.19;;;16.37
13304;BMP280;6720;51.958;4.540;2022-09-09T06:32:02;100354.13;;;16.45
13304;BMP280;6720;51.958;4.540;2022-09-09T06:34:28;100351.91;;;16.36
13304;BMP280;6720;51.958;4.540;2022-09-09T06:36:53;100346.91;;;16.30
13304;BMP280;6720;51.958;4.540;2022-09-09T06:39:19;100350.72;;;16.43
13304;BMP280;6720;51.958;4.540;2022-09-09T06:41:44;100336.19;;;16.33
13304;BMP280;6720;51.958;4.540;2022-09-09T06:44:10;100346.97;;;16.28
13304;BMP280;6720;51.958;4.540;2022-09-09T06:46:37;100347.53;;;16.53
13304;BMP280;6720;51.958;4.540;2022-09-09T06:49:03;100354.06;;;16.46
13304;BMP280;6720;51.958;4.540;2022-09-09T06:51:34;100354.94;;;16.64
13304;BMP280;6720;51.958;4.540;2022-09-09T06:54:01;100326.72;;;16.29
13304;BMP280;6720;51.958;4.540;2022-09-09T06:56:29;100353.38;;;16.60
13304;BMP280;6720;51.958;4.540;2022-09-09T06:58:57;100356.69;;;16.65
13304;BMP280;6720;51.958;4.540;2022-09-09T07:01:30;100355.13;;;16.61
13304;BMP280;6720;51.958;4.540;2022-09-09T07:03:57;100351.38;;;16.65
13304;BMP280;6720;51.958;4.540;2022-09-09T07:06:53;100351.81;;;16.56
13304;BMP280;6720;51.958;4.540;2022-09-09T07:09:18;100345.91;;;16.68
13304;BMP280;6720;51.958;4.540;2022-09-09T07:11:47;100346.38;;;16.59
13304;BMP280;6720;51.958;4.540;2022-09-09T07:14:13;100353.09;;;16.66
13304;BMP280;6720;51.958;4.540;2022-09-09T07:16:43;100337.44;;;16.61
13304;BMP280;6720;51.958;4.540;2022-09-09T07:19:10;100345.34;;;16.80
13304;BMP280;6720;51.958;4.540;2022-09-09T07:21:36;100350.63;;;16.80
13304;BMP280;6720;51.958;4.540;2022-09-09T07:24:02;100351.47;;;16.80
13304;BMP280;6720;51.958;4.540;2022-09-09T07:26:29;100346.25;;;16.62
13304;BMP280;6720;51.958;4.540;2022-09-09T07:28:55;100346.72;;;16.70
13304;BMP280;6720;51.958;4.540;2022-09-09T07:31:26;100341.66;;;16.65
13304;BMP280;6720;51.958;4.540;2022-09-09T07:33:52;100343.88;;;16.56
13304;BMP280;6720;51.958;4.540;2022-09-09T07:36:25;100340.81;;;16.65
13304;BMP280;6720;51.958;4.540;2022-09-09T07:38:52;100342.53;;;16.66
13304;BMP280;6720;51.958;4.540;2022-09-09T07:41:31;100355.19;;;16.76
13304;BMP280;6720;51.958;4.540;2022-09-09T07:43:57;100354.44;;;16.74
13304;BMP280;6720;51.958;4.540;2022-09-09T07:46:25;100351.06;;;16.71
13304;BMP280;6720;51.958;4.540;2022-09-09T07:48:52;100352.22;;;16.65
13304;BMP280;6720;51.958;4.540;2022-09-09T07:51:26;100357.22;;;16.71
13304;BMP280;6720;51.958;4.540;2022-09-09T07:53:54;100350.44;;;16.83
13304;BMP280;6720;51.958;4.540;2022-09-09T07:56:21;100351.09;;;16.88
13304;BMP280;6720;51.958;4.540;2022-09-09T07:58:49;100355.44;;;16.89
13304;BMP280;6720;51.958;4.540;2022-09-09T08:01:23;100344.88;;;16.89
13304;BMP280;6720;51.958;4.540;2022-09-09T08:04:08;100352.31;;;16.98
13304;BMP280;6720;51.958;4.540;2022-09-09T08:06:36;100355.38;;;16.90
13304;BMP280;6720;51.958;4.540;2022-09-09T08:09:02;100354.66;;;16.87
13304;BMP280;6720;51.958;4.540;2022-09-09T08:11:29;100347.50;;;16.89
13304;BMP280;6720;51.958;4.540;2022-09-09T08:13:55;100345.66;;;16.91
13304;BMP280;6720;51.958;4.540;2022-09-09T08:16:26;100350.00;;;16.92
13304;BMP280;6720;51.958;4.540;2022-09-09T08:18:52;100350.16;;;16.89
13304;BMP280;6720;51.958;4.540;2022-09-09T08:21:27;100351.22;;;17.02
13304;BMP280;6720;51.958;4.540;2022-09-09T08:23:55;100351.63;;;17.11
13304;BMP280;6720;51.958;4.540;2022-09-09T08:26:25;100359.72;;;17.08
13304;BMP280;6720;51.958;4.540;2022-09-09T08:28:53;100356.50;;;17.36
13304;BMP280;6720;51.958;4.540;2022-09-09T08:31:21;100357.31;;;17.55
13304;BMP280;6720;51.958;4.540;2022-09-09T08:33:48;100361.22;;;17.63
13304;BMP280;6720;51.958;4.540;2022-09-09T08:36:19;100362.03;;;17.31
13304;BMP280;6720;51.958;4.540;2022-09-09T08:38:52;100362.72;;;17.35
13304;BMP280;6720;51.958;4.540;2022-09-09T08:41:48;100367.66;;;17.42
13304;BMP280;6720;51.958;4.540;2022-09-09T08:52:57;100359.31;;;17.16
13304;BMP280;6720;51.958;4.540;2022-09-09T08:58:05;100359.16;;;17.02
13304;BMP280;6720;51.958;4.540;2022-09-09T09:01:05;100363.38;;;17.06
13304;BMP280;6720;51.958;4.540;2022-09-09T09:06:30;100374.41;;;16.97
13304;BMP280;6720;51.958;4.540;2022-09-09T09:11:57;100380.16;;;17.05
13304;BMP280;6720;51.958;4.540;2022-09-09T09:14:32;100380.44;;;17.00
13304;BMP280;6720;51.958;4.540;2022-09-09T09:17:20;100386.63;;;16.99
13304;BMP280;6720;51.958;4.540;2022-09-09T09:19:48;100370.69;;;17.01
13304;BMP280;6720;51.958;4.540;2022-09-09T09:22:28;100382.41;;;16.95
13304;BMP280;6720;51.958;4.540;2022-09-09T09:25:04;100387.50;;;17.00
13304;BMP280;6720;51.958;4.540;2022-09-09T09:27:40;100386.25;;;17.07
13304;BMP280;6720;51.958;4.540;2022-09-09T09:30:16;100379.41;;;17.20
13304;BMP280;6720;51.958;4.540;2022-09-09T09:32:56;100374.91;;;17.22
13304;BMP280;6720;51.958;4.540;2022-09-09T09:35:23;100365.28;;;17.36
13304;BMP280;6720;51.958;4.540;2022-09-09T09:37:49;100365.38;;;17.35
13304;BMP280;6720;51.958;4.540;2022-09-09T09:40:20;100362.13;;;17.13
13304;BMP280;6720;51.958;4.540;2022-09-09T09:42:54;100369.72;;;17.36
13304;BMP280;6720;51.958;4.540;2022-09-09T09:48:03;100357.59;;;17.32
13304;BMP280;6720;51.958;4.540;2022-09-09T09:50:30;100357.31;;;17.55
13304;BMP280;6720;51.958;4.540;2022-09-09T09:52:59;100359.47;;;17.47
13304;BMP280;6720;51.958;4.540;2022-09-09T09:55:25;100351.78;;;17.42
13304;BMP280;6720;51.958;4.540;2022-09-09T09:57:52;100363.19;;;17.60
13304;BMP280;6720;51.958;4.540;2022-09-09T10:00:20;100357.13;;;17.58
13304;BMP280;6720;51.958;4.540;2022-09-09T10:02:47;100346.94;;;17.83
13304;BMP280;6720;51.958;4.540;2022-09-09T10:05:18;100355.97;;;17.79
13304;BMP280;6720;51.958;4.540;2022-09-09T10:07:45;100344.16;;;17.69
13304;BMP280;6720;51.958;4.540;2022-09-09T10:10:20;100350.44;;;17.51
13304;BMP280;6720;51.958;4.540;2022-09-09T10:12:55;100356.50;;;17.53
13304;BMP280;6720;51.958;4.540;2022-09-09T10:15:36;100352.94;;;17.37
13304;BMP280;6720;51.958;4.540;2022-09-09T10:33:01;100358.63;;;17.12
13304;BMP280;6720;51.958;4.540;2022-09-09T10:35:53;100367.88;;;17.04
13304;BMP280;6720;51.958;4.540;2022-09-09T10:44:32;100355.16;;;16.95
13304;BMP280;6720;51.958;4.540;2022-09-09T10:50:40;100366.72;;;17.09
13304;BMP280;6720;51.958;4.540;2022-09-09T10:55:43;100365.25;;;17.04
13304;BMP280;6720;51.958;4.540;2022-09-09T10:58:29;100352.66;;;16.92
13304;BMP280;6720;51.958;4.540;2022-09-09T11:01:02;100361.81;;;17.19
13304;BMP280;6720;51.958;4.540;2022-09-09T11:03:35;100353.72;;;17.05
13304;BMP280;6720;51.958;4.540;2022-09-09T11:06:06;100348.00;;;17.14
13304;BMP280;6720;51.958;4.540;2022-09-09T11:08:36;100345.41;;;17.62
13304;BMP280;6720;51.958;4.540;2022-09-09T11:11:14;100351.72;;;17.92
13304;BMP280;6720;51.958;4.540;2022-09-09T11:13:47;100347.97;;;17.80
13304;BMP280;6720;51.958;4.540;2022-09-09T11:19:14;100358.56;;;17.96
13304;BMP280;6720;51.958;4.540;2022-09-09T11:21:49;100356.00;;;18.10
13304;BMP280;6720;51.958;4.540;2022-09-09T11:24:41;100354.81;;;18.47
13304;BMP280;6720;51.958;4.540;2022-09-09T11:27:19;100348.97;;;17.93
13304;BMP280;6720;51.958;4.540;2022-09-09T11:40:43;100357.19;;;17.89
13304;BMP280;6720;51.958;4.540;2022-09-09T11:43:15;100355.41;;;18.05
13304;BMP280;6720;51.958;4.540;2022-09-09T11:45:43;100365.50;;;17.66
13304;BMP280;6720;51.958;4.540;2022-09-09T11:48:42;100366.69;;;17.60
13304;BMP280;6720;51.958;4.540;2022-09-09T11:53:56;100378.78;;;17.49
13304;BMP280;6720;51.958;4.540;2022-09-09T11:56:34;100376.91;;;17.17
13304;BMP280;6720;51.958;4.540;2022-09-09T11:59:16;100380.50;;;17.16
13304;BMP280;6720;51.958;4.540;2022-09-09T12:01:45;100378.06;;;17.11
13304;BMP280;6720;51.958;4.540;2022-09-09T12:06:59;100372.38;;;17.36
13304;BMP280;6720;51.958;4.540;2022-09-09T12:19:40;100378.94;;;17.12
13304;BMP280;6720;51.958;4.540;2022-09-09T12:22:36;100380.50;;;16.99
13304;BMP280;6720;51.958;4.540;2022-09-09T12:25:35;100357.78;;;16.95
13304;BMP280;6720;51.958;4.540;2022-09-09T12:28:05;100355.19;;;17.10
13304;BMP280;6720;51.958;4.540;2022-09-09T12:30:56;100381.19;;;17.02
13304;BMP280;6720;51.958;4.540;2022-09-09T12:33:23;100360.81;;;17.04
13304;BMP280;6720;51.958;4.540;2022-09-09T12:35:57;100378.16;;;17.27
13304;BMP280;6720;51.958;4.540;2022-09-09T12:38:32;100378.59;;;17.35
13304;BMP280;6720;51.958;4.540;2022-09-09T12:40:59;100381.34;;;17.16
13304;BMP280;6720;51.958;4.540;2022-09-09T12:43:27;100372.09;;;17.25
13304;BMP280;6720;51.958;4.540;2022-09-09T12:45:59;100380.50;;;17.16
13304;BMP280;6720;51.958;4.540;2022-09-09T12:48:34;100375.50;;;17.27
13304;BMP280;6720;51.958;4.540;2022-09-09T12:51:01;100373.19;;;17.04
13304;BMP280;6720;51.958;4.540;2022-09-09T12:53:36;100380.56;;;17.31
13304;BMP280;6720;51.958;4.540;2022-09-09T12:56:05;100380.50;;;17.33
13304;BMP280;6720;51.958;4.540;2022-09-09T12:58:36;100381.09;;;17.21
13304;BMP280;6720;51.958;4.540;2022-09-09T13:01:03;100365.22;;;17.38
13304;BMP280;6720;51.958;4.540;2022-09-09T13:03:31;100368.66;;;17.06
13304;BMP280;6720;51.958;4.540;2022-09-09T13:05:59;100371.16;;;17.26
13304;BMP280;6720;51.958;4.540;2022-09-09T13:08:34;100377.38;;;17.25
13304;BMP280;6720;51.958;4.540;2022-09-09T13:11:02;100386.09;;;17.10
13304;BMP280;6720;51.958;4.540;2022-09-09T13:13:40;100378.94;;;17.46
13304;BMP280;6720;51.958;4.540;2022-09-09T13:16:19;100374.78;;;17.90
13304;BMP280;6720;51.958;4.540;2022-09-09T13:18:45;100385.59;;;18.65
13304;BMP280;6720;51.958;4.540;2022-09-09T13:21:11;100384.84;;;18.47
13304;BMP280;6720;51.958;4.540;2022-09-09T13:23:37;100375.31;;;18.74
13304;BMP280;6720;51.958;4.540;2022-09-09T13:26:20;100394.50;;;18.48
13304;BMP280;6720;51.958;4.540;2022-09-09T13:28:48;100400.25;;;18.41
13304;BMP280;6720;51.958;4.540;2022-09-09T13:31:30;100392.44;;;18.69
13304;BMP280;6720;51.958;4.540;2022-09-09T13:33:57;100391.69;;;18.51
13304;BMP280;6720;51.958;4.540;2022-09-09T13:36:31;100377.09;;;18.74
13304;BMP280;6720;51.958;4.540;2022-09-09T13:38:58;100380.88;;;18.70
13304;BMP280;6720;51.958;4.540;2022-09-09T13:41:34;100397.31;;;18.61
13304;BMP280;6720;51.958;4.540;2022-09-09T13:46:34;100395.78;;;18.41
13304;BMP280;6720;51.958;4.540;2022-09-09T13:49:19;100401.00;;;18.27
13304;BMP280;6720;51.958;4.540;2022-09-09T13:52:03;100403.28;;;17.85
13304;BMP280;6720;51.958;4.540;2022-09-09T13:54:29;100402.41;;;17.69
13304;BMP280;6720;51.958;4.540;2022-09-09T13:56:56;100401.72;;;17.65
13304;BMP280;6720;51.958;4.540;2022-09-09T14:01:47;100399.16;;;17.64
13304;BMP280;6720;51.958;4.540;2022-09-09T14:04:12;100388.78;;;17.44
13304;BMP280;6720;51.958;4.540;2022-09-09T14:06:39;100387.47;;;17.51
13304;BMP280;6720;51.958;4.540;2022-09-09T14:09:06;100400.41;;;17.57
13304;BMP280;6720;51.958;4.540;2022-09-09T14:11:33;100391.44;;;17.59
13304;BMP280;6720;51.958;4.540;2022-09-09T14:13:58;100392.31;;;17.60
13304;BMP280;6720;51.958;4.540;2022-09-09T14:16:27;100365.94;;;17.41
13304;BMP280;6720;51.958;4.540;2022-09-09T14:18:53;100389.66;;;17.60
13304;BMP280;6720;51.958;4.540;2022-09-09T14:21:18;100385.69;;;17.68
13304;BMP280;6720;51.958;4.540;2022-09-09T14:23:43;100372.03;;;17.76
13304;BMP280;6720;51.958;4.540;2022-09-09T14:26:09;100373.56;;;17.80
13304;BMP280;6720;51.958;4.540;2022-09-09T14:28:36;100381.63;;;17.94
13304;BMP280;6720;51.958;4.540;2022-09-09T14:31:03;100388.97;;;18.04
13304;BMP280;6720;51.958;4.540;2022-09-09T14:33:30;100376.53;;;18.06
13304;BMP280;6720;51.958;4.540;2022-09-09T14:36:00;100387.75;;;18.27
13304;BMP280;6720;51.958;4.540;2022-09-09T14:38:31;100386.63;;;18.47
13304;BMP280;6720;51.958;4.540;2022-09-09T14:40:56;100392.09;;;18.59
13304;BMP280;6720;51.958;4.540;2022-09-09T14:43:23;100399.72;;;18.65
13304;BMP280;6720;51.958;4.540;2022-09-09T14:45:48;100399.91;;;19.07
13304;BMP280;6720;51.958;4.540;2022-09-09T14:48:15;100398.53;;;19.59
13304;BMP280;6720;51.958;4.540;2022-09-09T14:50:41;100394.75;;;19.91
13304;BMP280;6720;51.958;4.540;2022-09-09T14:53:07;100397.38;;;20.33
13304;BMP280;6720;51.958;4.540;2022-09-09T14:55:34;100401.19;;;20.29
13304;BMP280;6720;51.958;4.540;2022-09-09T14:57:59;100400.34;;;20.29
13304;BMP280;6720;51.958;4.540;2022-09-09T15:00:25;100398.03;;;20.77
13304;BMP280;6720;51.958;4.540;2022-09-09T15:02:53;100418.81;;;21.11
13304;BMP280;6720;51.958;4.540;2022-09-09T15:05:19;100403.50;;;20.88
13304;BMP280;6720;51.958;4.540;2022-09-09T15:07:45;100403.69;;;20.99
13304;BMP280;6720;51.958;4.540;2022-09-09T15:10:10;100403.47;;;21.02
13304;BMP280;6720;51.958;4.540;2022-09-09T15:12:36;100409.28;;;21.21
13304;BMP280;6720;51.958;4.540;2022-09-09T15:15:02;100405.19;;;21.03
13304;BMP280;6720;51.958;4.540;2022-09-09T15:17:28;100422.00;;;21.04
13304;BMP280;6720;51.958;4.540;2022-09-09T15:19:53;100413.47;;;20.99
13304;BMP280;6720;51.958;4.540;2022-09-09T15:22:20;100417.16;;;21.23
13304;BMP280;6720;51.958;4.540;2022-09-09T15:24:45;100416.03;;;21.00
13304;BMP280;6720;51.958;4.540;2022-09-09T15:27:10;100415.75;;;20.91
13304;BMP280;6720;51.958;4.540;2022-09-09T15:29:36;100415.00;;;20.62
13304;BMP280;6720;51.958;4.540;2022-09-09T15:32:03;100422.34;;;20.71
13304;BMP280;6720;51.958;4.540;2022-09-09T15:34:28;100419.50;;;20.48
13304;BMP280;6720;51.958;4.540;2022-09-09T15:36:54;100426.06;;;20.28
13304;BMP280;6720;51.958;4.540;2022-09-09T15:39:20;100422.19;;;20.06
13304;BMP280;6720;51.958;4.540;2022-09-09T15:41:47;100420.94;;;19.97
13304;BMP280;6720;51.958;4.540;2022-09-09T15:44:14;100415.41;;;19.72
13304;BMP280;6720;51.958;4.540;2022-09-09T15:46:51;100415.81;;;19.66
13304;BMP280;6720;51.958;4.540;2022-09-09T15:49:21;100411.81;;;19.59
13304;BMP280;6720;51.958;4.540;2022-09-09T15:51:55;100405.91;;;19.40
13304;BMP280;6720;51.958;4.540;2022-09-09T15:54:22;100407.59;;;19.41
13304;BMP280;6720;51.958;4.540;2022-09-09T15:56:57;100403.63;;;19.48
13304;BMP280;6720;51.958;4.540;2022-09-09T15:59:24;100403.03;;;19.43
13304;BMP280;6720;51.958;4.540;2022-09-09T16:01:50;100410.66;;;19.20
13304;BMP280;6720;51.958;4.540;2022-09-09T16:04:19;100406.56;;;19.14
13304;BMP280;6720;51.958;4.540;2022-09-09T16:06:56;100412.63;;;19.16
13304;BMP280;6720;51.958;4.540;2022-09-09T16:09:30;100415.66;;;19.10
13304;BMP280;6720;51.958;4.540;2022-09-09T16:12:03;100416.69;;;19.08
13304;BMP280;6720;51.958;4.540;2022-09-09T16:14:40;100432.25;;;18.98
13304;BMP280;6720;51.958;4.540;2022-09-09T16:17:08;100425.19;;;18.83
13304;BMP280;6720;51.958;4.540;2022-09-09T16:19:33;100439.63;;;18.93
13304;BMP280;6720;51.958;4.540;2022-09-09T16:22:00;100422.88;;;18.93
13304;BMP280;6720;51.958;4.540;2022-09-09T16:24:25;100425.41;;;18.94
13304;BMP280;6720;51.958;4.540;2022-09-09T16:26:52;100417.53;;;19.08
13304;BMP280;6720;51.958;4.540;2022-09-09T16:29:19;100431.00;;;19.19
13304;BMP280;6720;51.958;4.540;2022-09-09T16:31:45;100427.41;;;19.20
13304;BMP280;6720;51.958;4.540;2022-09-09T16:34:12;100427.97;;;19.11
13304;BMP280;6720;51.958;4.540;2022-09-09T16:36:39;100437.75;;;18.95
13304;BMP280;6720;51.958;4.540;2022-09-09T16:39:09;100439.47;;;18.96
13304;BMP280;6720;51.958;4.540;2022-09-09T16:41:37;100445.56;;;18.83
13304;BMP280;6720;51.958;4.540;2022-09-09T16:44:05;100438.81;;;18.77
13304;BMP280;6720;51.958;4.540;2022-09-09T16:46:33;100447.34;;;18.82
13304;BMP280;6720;51.958;4.540;2022-09-09T16:49:00;100452.91;;;18.93
13304;BMP280;6720;51.958;4.540;2022-09-09T16:51:32;100438.25;;;18.86
13304;BMP280;6720;51.958;4.540;2022-09-09T16:53:59;100450.41;;;18.90
13304;BMP280;6720;51.958;4.540;2022-09-09T16:56:27;100456.13;;;18.98
13304;BMP280;6720;51.958;4.540;2022-09-09T16:58:58;100455.88;;;19.03
13304;BMP280;6720;51.958;4.540;2022-09-09T17:01:25;100446.31;;;19.00
13304;BMP280;6720;51.958;4.540;2022-09-09T17:03:59;100458.69;;;19.15
13304;BMP280;6720;51.958;4.540;2022-09-09T17:06:26;100461.69;;;19.09
13304;BMP280;6720;51.958;4.540;2022-09-09T17:09:02;100462.03;;;19.03